createdAt,value
2022-11-26T00:01:27.911Z,15.25
2022-11-26T00:03:55.416Z,15.90
2022-11-26T00:06:31.576Z,15.40
2022-11-26T00:09:02.339Z,15.02
2022-11-26T00:11:29.388Z,14.68
2022-11-26T00:13:56.692Z,13.15
2022-11-26T00:16:23.943Z,13.68
2022-11-26T00:18:51.274Z,13.73
2022-11-26T00:21:24.998Z,13.43
2022-11-26T00:23:53.895Z,15.13
2022-11-26T00:26:23.045Z,12.30
2022-11-26T00:28:57.227Z,13.63
2022-11-26T00:31:24.823Z,15.23
2022-11-26T00:33:52.573Z,14.48
2022-11-26T00:36:21.381Z,14.10
2022-11-26T00:39:11.344Z,14.13
2022-11-26T00:41:39.809Z,14.25
2022-11-26T00:44:21.448Z,14.25
2022-11-26T00:46:48.941Z,14.82
2022-11-26T00:49:19.254Z,14.02
2022-11-26T00:51:46.903Z,15.18
2022-11-26T00:54:17.301Z,13.48
2022-11-26T00:56:44.498Z,14.00
2022-11-26T00:59:23.046Z,13.38
2022-11-26T01:01:52.613Z,13.90
2022-11-26T01:04:19.970Z,14.63
2022-11-26T01:06:47.083Z,12.93
2022-11-26T01:09:19.649Z,13.85
2022-11-26T01:11:50.953Z,12.68
2022-11-26T01:14:23.674Z,13.55
2022-11-26T01:16:56.881Z,12.82
2022-11-26T01:19:26.724Z,12.68
2022-11-26T01:21:56.174Z,13.23
2022-11-26T01:24:23.503Z,14.05
2022-11-26T01:26:50.664Z,12.00
2022-11-26T01:29:20.143Z,12.85
2022-11-26T01:31:47.587Z,13.07
2022-11-26T01:34:17.417Z,11.55
2022-11-26T01:36:44.436Z,11.65
2022-11-26T01:39:20.259Z,12.25
2022-11-26T01:42:05.181Z,11.05
2022-11-26T01:44:35.903Z,11.70
2022-11-26T01:47:23.745Z,10.98
2022-11-26T01:50:28.456Z,10.15
2022-11-26T01:53:04.481Z,10.82
2022-11-26T01:55:46.649Z,10.45
2022-11-26T01:58:18.681Z,10.05
2022-11-26T02:00:48.562Z,10.00
2022-11-26T02:03:15.806Z,10.70
2022-11-26T02:05:52.126Z,10.55
2022-11-26T02:08:25.044Z,10.05
2022-11-26T02:10:52.668Z,11.38
2022-11-26T02:13:20.445Z,9.27
2022-11-26T02:16:11.895Z,9.98
2022-11-26T02:18:43.767Z,9.48
2022-11-26T02:21:20.785Z,9.68
2022-11-26T02:23:56.497Z,10.30
2022-11-26T02:26:37.894Z,11.48
2022-11-26T02:29:29.474Z,9.20
2022-11-26T02:32:14.761Z,9.77
2022-11-26T02:35:07.908Z,8.88
2022-11-26T02:37:42.304Z,9.40
2022-11-26T02:40:12.162Z,8.02
2022-11-26T02:42:39.590Z,8.38
2022-11-26T02:45:11.599Z,9.77
2022-11-26T02:47:44.744Z,9.65
2022-11-26T02:50:22.338Z,9.27
2022-11-26T02:52:53.071Z,10.07
2022-11-26T02:55:25.113Z,9.23
2022-11-26T02:57:52.776Z,9.45
2022-11-26T03:00:20.939Z,9.65
2022-11-26T03:02:54.362Z,9.57
2022-11-26T03:05:26.339Z,9.05
2022-11-26T03:07:55.250Z,8.23
2022-11-26T03:10:27.796Z,8.60
2022-11-26T03:12:57.625Z,9.00
2022-11-26T03:15:27.980Z,8.63
2022-11-26T03:17:57.926Z,8.57
2022-11-26T03:20:25.041Z,9.10
2022-11-26T03:22:52.384Z,8.70
2022-11-26T03:25:19.495Z,9.00
2022-11-26T03:27:46.931Z,9.20
2022-11-26T03:30:16.664Z,8.55
2022-11-26T03:32:43.942Z,8.82
2022-11-26T03:35:15.692Z,8.65
2022-11-26T03:37:45.263Z,7.85
2022-11-26T03:40:12.652Z,8.73
2022-11-26T03:42:42.495Z,8.20
2022-11-26T03:45:10.032Z,8.20
2022-11-26T03:47:37.613Z,8.00
2022-11-26T03:50:08.477Z,8.32
2022-11-26T03:52:35.781Z,7.68
2022-11-26T03:55:05.962Z,8.48
2022-11-26T03:57:37.904Z,7.57
2022-11-26T04:00:06.326Z,7.63
2022-11-26T04:02:36.395Z,7.72
2022-11-26T04:05:04.503Z,7.60
2022-11-26T04:07:34.507Z,7.65
2022-11-26T04:10:01.583Z,6.65
2022-11-26T04:12:31.442Z,8.60
2022-11-26T04:14:58.618Z,8.15
2022-11-26T04:17:28.412Z,8.40
2022-11-26T04:19:55.424Z,8.93
2022-11-26T04:22:24.971Z,8.93
2022-11-26T04:24:54.356Z,7.68
2022-11-26T04:27:21.667Z,7.53
2022-11-26T04:29:48.660Z,7.20
2022-11-26T04:32:16.220Z,7.03
2022-11-26T04:34:43.286Z,7.47
2022-11-26T04:37:10.612Z,6.65
2022-11-26T04:39:37.824Z,7.00
2022-11-26T04:42:07.862Z,7.38
2022-11-26T04:44:34.856Z,6.90
2022-11-26T04:47:02.370Z,6.38
2022-11-26T04:49:29.466Z,8.18
2022-11-26T04:51:57.154Z,6.32
2022-11-26T04:54:26.520Z,6.82
2022-11-26T04:56:53.857Z,6.57
2022-11-26T04:59:20.870Z,6.57
2022-11-26T05:01:50.622Z,7.03
2022-11-26T05:04:17.745Z,6.63
2022-11-26T05:06:45.309Z,6.90
2022-11-26T05:09:12.780Z,6.10
2022-11-26T05:11:42.304Z,6.47
2022-11-26T05:14:09.260Z,5.63
2022-11-26T05:16:36.689Z,5.45
2022-11-26T05:19:04.020Z,5.18
2022-11-26T05:21:33.780Z,5.20
2022-11-26T05:24:00.880Z,4.05
2022-11-26T05:26:28.216Z,4.85
2022-11-26T05:28:57.546Z,4.20
2022-11-26T05:31:25.147Z,4.93
2022-11-26T05:33:54.620Z,4.30
2022-11-26T05:36:24.446Z,3.90
2022-11-26T05:38:51.577Z,4.90
2022-11-26T05:41:18.968Z,4.30
2022-11-26T05:43:48.286Z,5.35
2022-11-26T05:46:17.990Z,5.18
2022-11-26T05:48:47.848Z,5.88
2022-11-26T05:51:17.596Z,5.85
2022-11-26T05:53:44.786Z,6.15
2022-11-26T05:56:14.345Z,6.03
2022-11-26T05:58:43.313Z,6.68
2022-11-26T06:01:12.998Z,6.35
2022-11-26T06:03:44.773Z,7.03
2022-11-26T06:06:12.153Z,5.97
2022-11-26T06:08:39.164Z,6.30
2022-11-26T06:11:06.686Z,5.75
2022-11-26T06:13:38.412Z,5.82
2022-11-26T06:16:06.131Z,6.22
2022-11-26T06:18:36.208Z,6.00
2022-11-26T06:21:05.480Z,6.13
2022-11-26T06:23:33.522Z,6.63
2022-11-26T06:26:08.584Z,6.35
2022-11-26T06:28:35.672Z,6.85
2022-11-26T06:31:03.074Z,6.30
2022-11-26T06:33:30.545Z,7.25
2022-11-26T06:36:01.195Z,7.57
2022-11-26T06:38:28.665Z,8.00
2022-11-26T06:41:06.868Z,8.48
2022-11-26T06:43:36.641Z,8.93
2022-11-26T06:46:09.934Z,9.43
2022-11-26T06:48:40.231Z,8.05
2022-11-26T06:51:16.305Z,9.02
2022-11-26T06:53:45.868Z,8.90
2022-11-26T06:56:19.204Z,9.93
2022-11-26T07:01:19.595Z,8.57
2022-11-26T07:03:47.261Z,9.02
2022-11-26T07:06:18.531Z,8.90
2022-11-26T07:08:45.818Z,9.88
2022-11-26T07:11:13.707Z,9.55
2022-11-26T07:13:43.234Z,8.27
2022-11-26T07:16:10.714Z,9.68
2022-11-26T07:18:38.148Z,9.45
2022-11-26T07:21:08.499Z,8.98
2022-11-26T07:23:35.643Z,8.80
2022-11-26T07:26:04.523Z,8.82
2022-11-26T07:28:34.830Z,10.23
2022-11-26T07:31:11.536Z,8.82
2022-11-26T07:33:42.151Z,9.27
2022-11-26T07:36:19.483Z,9.48
2022-11-26T07:38:47.686Z,10.65
2022-11-26T07:41:17.731Z,10.40
2022-11-26T07:43:45.562Z,9.43
2022-11-26T07:46:15.597Z,9.23
2022-11-26T07:48:42.911Z,10.68
2022-11-26T07:51:36.580Z,9.52
2022-11-26T07:54:08.372Z,9.40
2022-11-26T07:56:38.710Z,8.93
2022-11-26T07:59:05.788Z,9.75
2022-11-26T08:01:36.469Z,9.43
2022-11-26T08:04:07.041Z,9.45
2022-11-26T08:06:34.406Z,9.23
2022-11-26T08:09:02.677Z,11.82
2022-11-26T08:11:34.196Z,12.13
2022-11-26T08:14:10.363Z,8.88
2022-11-26T08:16:40.968Z,8.40
2022-11-26T08:19:13.515Z,9.10
2022-11-26T08:21:41.457Z,9.33
2022-11-26T08:24:12.731Z,9.10
2022-11-26T08:26:44.414Z,8.00
2022-11-26T08:29:12.926Z,8.18
2022-11-26T08:31:46.015Z,8.20
2022-11-26T08:34:15.590Z,8.70
2022-11-26T08:36:43.446Z,10.25
2022-11-26T08:39:15.578Z,8.57
2022-11-26T08:41:51.656Z,8.88
2022-11-26T08:44:19.569Z,8.63
2022-11-26T08:46:46.905Z,9.90
2022-11-26T08:49:16.730Z,9.30
2022-11-26T08:51:44.734Z,8.63
2022-11-26T08:54:14.260Z,8.15
2022-11-26T08:56:41.559Z,8.40
2022-11-26T08:59:10.840Z,9.50
2022-11-26T09:01:38.195Z,7.97
2022-11-26T09:04:08.135Z,8.57
2022-11-26T09:06:38.471Z,7.78
2022-11-26T09:09:08.627Z,7.60
2022-11-26T09:11:39.639Z,11.90
2022-11-26T09:14:06.844Z,9.13
2022-11-26T09:16:34.237Z,11.45
2022-11-26T09:19:02.485Z,7.43
2022-11-26T09:21:32.932Z,7.15
2022-11-26T09:24:00.091Z,6.90
2022-11-26T09:26:33.865Z,7.25
2022-11-26T09:29:01.377Z,6.90
2022-11-26T09:31:28.945Z,7.35
2022-11-26T09:34:00.274Z,7.28
2022-11-26T09:36:27.633Z,6.70
2022-11-26T09:38:59.139Z,6.80
2022-11-26T09:41:38.805Z,7.00
2022-11-26T09:44:35.193Z,7.07
2022-11-26T09:47:12.773Z,6.30
2022-11-26T09:49:59.330Z,6.47
2022-11-26T09:52:30.778Z,5.15
2022-11-26T09:55:08.545Z,4.93
2022-11-26T09:57:40.436Z,5.68
2022-11-26T10:00:22.835Z,7.18
2022-11-26T10:02:53.127Z,7.25
2022-11-26T10:05:24.926Z,6.50
2022-11-26T10:07:55.113Z,5.90
2022-11-26T10:10:43.476Z,5.43
2022-11-26T10:13:45.860Z,5.65
2022-11-26T10:16:29.453Z,5.35
2022-11-26T10:19:13.462Z,6.60
2022-11-26T10:21:58.732Z,6.07
2022-11-26T10:24:40.129Z,5.97
2022-11-26T10:27:15.562Z,5.78
2022-11-26T10:29:49.939Z,9.80
2022-11-26T10:32:21.269Z,7.55
2022-11-26T10:34:50.539Z,8.20
2022-11-26T10:37:20.557Z,7.80
2022-11-26T10:39:48.732Z,7.05
2022-11-26T10:42:21.402Z,6.68
2022-11-26T10:44:52.902Z,5.30
2022-11-26T10:47:30.149Z,7.60
2022-11-26T10:50:19.106Z,7.68
2022-11-26T10:52:52.812Z,8.75
2022-11-26T10:55:43.544Z,7.28
2022-11-26T10:58:22.789Z,7.35
2022-11-26T11:00:50.172Z,8.43
2022-11-26T11:03:59.841Z,7.03
2022-11-26T11:06:19.865Z,6.90
2022-11-26T11:08:49.711Z,6.88
2022-11-26T11:11:26.017Z,7.00
2022-11-26T11:13:53.914Z,6.82
2022-11-26T11:16:25.712Z,5.50
2022-11-26T11:19:04.505Z,5.13
2022-11-26T11:21:37.383Z,4.45
2022-11-26T11:24:14.841Z,4.00
2022-11-26T11:26:47.959Z,3.72
2022-11-26T11:29:32.782Z,3.50
2022-11-26T11:32:02.401Z,3.85
2022-11-26T11:34:39.308Z,3.72
2022-11-26T11:37:17.238Z,3.85
2022-11-26T11:39:45.017Z,4.55
2022-11-26T11:42:25.744Z,4.47
2022-11-26T11:44:53.380Z,4.07
2022-11-26T11:47:46.639Z,4.85
2022-11-26T11:50:17.377Z,5.43
2022-11-26T11:52:47.464Z,4.75
2022-11-26T11:55:33.780Z,4.85
2022-11-26T11:58:25.848Z,5.40
2022-11-26T12:01:12.597Z,3.92
2022-11-26T12:04:21.390Z,3.28
2022-11-26T12:06:54.368Z,3.05
2022-11-26T12:09:39.604Z,3.72
2022-11-26T12:12:12.946Z,3.22
2022-11-26T12:14:51.734Z,3.33
2022-11-26T12:17:43.513Z,3.40
2022-11-26T12:20:40.015Z,3.63
2022-11-26T12:23:23.030Z,3.00
2022-11-26T12:26:06.886Z,3.05
2022-11-26T12:28:40.974Z,3.20
2022-11-26T12:31:19.684Z,3.03
2022-11-26T12:33:53.422Z,4.07
2022-11-26T12:36:26.579Z,4.45
2022-11-26T12:38:57.521Z,4.50
2022-11-26T12:41:43.676Z,5.13
2022-11-26T12:44:19.962Z,5.15
2022-11-26T12:47:24.623Z,5.43
2022-11-26T12:49:58.111Z,5.68
2022-11-26T12:52:50.034Z,4.95
2022-11-26T12:55:49.938Z,5.50
2022-11-26T12:58:27.221Z,4.85
2022-11-26T13:00:58.631Z,4.70
2022-11-26T13:03:31.291Z,4.50
2022-11-26T13:06:16.871Z,4.82
2022-11-26T13:08:53.119Z,4.75
2022-11-26T13:11:35.091Z,5.93
2022-11-26T13:14:14.372Z,5.10
2022-11-26T13:17:11.260Z,5.88
2022-11-26T13:19:46.823Z,7.38
2022-11-26T13:22:52.373Z,5.72
2022-11-26T13:25:28.773Z,5.03
2022-11-26T13:28:17.548Z,5.10
2022-11-26T13:31:18.205Z,5.50
2022-11-26T13:34:04.057Z,4.97
2022-11-26T13:36:52.997Z,5.32
2022-11-26T13:39:44.659Z,6.00
2022-11-26T13:42:35.985Z,5.90
2022-11-26T13:45:06.596Z,5.63
2022-11-26T13:47:49.731Z,5.22
2022-11-26T13:50:32.143Z,6.18
2022-11-26T13:53:26.991Z,5.13
2022-11-26T13:56:00.427Z,5.60
2022-11-26T13:58:36.118Z,5.88
2022-11-26T14:01:32.879Z,6.38
2022-11-26T14:04:00.458Z,6.93
2022-11-26T14:06:30.225Z,6.50
2022-11-26T14:09:00.526Z,7.43
2022-11-26T14:11:45.645Z,7.20
2022-11-26T14:14:25.274Z,9.95
2022-11-26T14:17:01.334Z,6.88
2022-11-26T14:19:40.913Z,7.30
2022-11-26T14:22:16.971Z,6.97
2022-11-26T14:24:50.728Z,4.00
2022-11-26T14:27:20.798Z,2.90
2022-11-26T14:30:08.831Z,2.30
2022-11-26T14:32:48.012Z,2.03
2022-11-26T14:35:29.227Z,2.45
2022-11-26T14:38:00.834Z,1.70
2022-11-26T14:40:37.457Z,1.40
2022-11-26T14:43:07.321Z,1.40
2022-11-26T14:45:37.390Z,1.15
2022-11-26T14:48:14.880Z,3.33
2022-11-26T14:50:43.050Z,1.48
2022-11-26T14:53:12.142Z,1.63
2022-11-26T14:55:39.699Z,2.85
2022-11-26T14:58:34.732Z,1.73
2022-11-26T15:01:03.494Z,1.50
2022-11-26T15:03:30.772Z,1.80
2022-11-26T15:05:58.176Z,1.33
2022-11-26T15:08:29.546Z,3.85
2022-11-26T15:11:03.703Z,2.40
2022-11-26T15:13:45.028Z,1.77
2022-11-26T15:16:31.240Z,1.70
2022-11-26T15:18:59.341Z,1.73
2022-11-26T15:21:28.103Z,2.00
2022-11-26T15:23:59.349Z,1.58
2022-11-26T15:26:33.483Z,1.90
2022-11-26T15:29:00.888Z,1.73
2022-11-26T15:31:54.593Z,1.85
2022-11-26T15:34:23.909Z,1.73
2022-11-26T15:36:53.872Z,2.60
2022-11-26T15:39:30.724Z,2.58
2022-11-26T15:42:05.822Z,2.75
2022-11-26T15:44:42.386Z,3.10
2022-11-26T15:47:20.354Z,3.72
2022-11-26T15:49:51.439Z,3.75
2022-11-26T15:52:22.972Z,4.35
2022-11-26T15:55:15.994Z,4.50
2022-11-26T15:57:44.511Z,4.72
2022-11-26T16:00:35.808Z,5.95
2022-11-26T16:03:04.259Z,6.22
2022-11-26T16:05:37.085Z,7.63
2022-11-26T16:08:30.743Z,7.35
2022-11-26T16:11:05.306Z,8.47
2022-11-26T16:13:33.770Z,7.68
2022-11-26T16:16:03.922Z,7.50
2022-11-26T16:18:38.059Z,8.10
2022-11-26T16:21:22.228Z,8.43
2022-11-26T16:24:02.076Z,9.20
2022-11-26T16:26:29.733Z,8.13
2022-11-26T16:28:59.447Z,9.05
2022-11-26T16:31:26.780Z,9.90
2022-11-26T16:33:56.461Z,9.30
2022-11-26T16:36:26.527Z,8.15
2022-11-26T16:38:56.428Z,8.68
2022-11-26T16:41:23.636Z,7.93
2022-11-26T16:43:50.965Z,8.45
2022-11-26T16:46:23.951Z,7.15
2022-11-26T16:48:53.745Z,6.22
2022-11-26T16:51:21.658Z,6.47
2022-11-26T16:53:49.461Z,6.10
2022-11-26T16:56:32.545Z,6.53
2022-11-26T16:59:00.246Z,6.47
2022-11-26T17:01:27.505Z,5.85
2022-11-26T17:03:57.360Z,8.40
2022-11-26T17:06:33.767Z,6.45
2022-11-26T17:09:03.963Z,5.82
2022-11-26T17:11:33.434Z,5.75
2022-11-26T17:14:03.644Z,5.97
2022-11-26T17:16:35.269Z,5.72
2022-11-26T17:19:05.012Z,6.50
2022-11-26T17:21:36.821Z,6.93
2022-11-26T17:24:04.472Z,8.60
2022-11-26T17:26:31.529Z,7.95
2022-11-26T17:28:58.857Z,6.15
2022-11-26T17:31:26.214Z,6.53
2022-11-26T17:33:53.644Z,5.63
2022-11-26T17:36:22.807Z,6.07
2022-11-26T17:38:51.150Z,6.25
2022-11-26T17:41:18.347Z,5.38
2022-11-26T17:43:46.003Z,5.60
2022-11-26T17:46:16.289Z,6.85
2022-11-26T17:48:44.102Z,5.57
2022-11-26T17:51:13.081Z,6.32
2022-11-26T17:53:41.337Z,5.78
2022-11-26T17:56:22.785Z,6.70
2022-11-26T17:58:52.885Z,6.25
2022-11-26T18:01:19.974Z,6.20
2022-11-26T18:03:47.598Z,5.80
2022-11-26T18:06:17.288Z,5.90
2022-11-26T18:08:49.478Z,5.72
2022-11-26T18:11:18.723Z,5.97
2022-11-26T18:13:46.039Z,5.53
2022-11-26T18:16:13.071Z,6.05
2022-11-26T18:18:40.701Z,6.65
2022-11-26T18:21:07.833Z,6.07
2022-11-26T18:23:35.323Z,7.38
2022-11-26T18:26:02.523Z,6.25
2022-11-26T18:28:32.024Z,6.05
2022-11-26T18:30:59.173Z,5.85
2022-11-26T18:33:26.860Z,5.82
2022-11-26T18:35:56.364Z,6.95
2022-11-26T18:38:23.733Z,5.57
2022-11-26T18:40:59.787Z,6.22
2022-11-26T18:43:30.119Z,6.53
2022-11-26T18:46:01.194Z,7.07
2022-11-26T18:48:28.676Z,5.10
2022-11-26T18:50:57.276Z,6.22
2022-11-26T18:53:28.033Z,5.60
2022-11-26T18:55:56.145Z,6.53
2022-11-26T18:58:26.043Z,5.97
2022-11-26T19:00:54.233Z,5.60
2022-11-26T19:03:21.576Z,5.60
2022-11-26T19:05:51.823Z,6.38
2022-11-26T19:08:20.028Z,6.05
2022-11-26T19:10:47.463Z,6.40
2022-11-26T19:13:15.513Z,6.35
2022-11-26T19:15:43.967Z,6.15
2022-11-26T19:18:14.958Z,6.35
2022-11-26T19:20:49.995Z,6.55
2022-11-26T19:23:21.166Z,5.30
2022-11-26T19:25:48.334Z,18.98
2022-11-26T19:28:15.608Z,8.23
2022-11-26T19:30:42.744Z,7.60
2022-11-26T19:33:10.121Z,7.97
2022-11-26T19:35:40.370Z,7.55
2022-11-26T19:38:07.690Z,7.20
2022-11-26T19:40:38.834Z,7.78
2022-11-26T19:43:06.163Z,7.68
2022-11-26T19:45:35.827Z,7.88
2022-11-26T19:48:03.281Z,8.27
2022-11-26T19:50:30.341Z,7.68
2022-11-26T19:53:00.223Z,7.88
2022-11-26T19:55:27.259Z,8.57
2022-11-26T19:57:54.557Z,7.18
2022-11-26T20:00:21.749Z,7.72
2022-11-26T20:02:52.007Z,6.93
2022-11-26T20:05:19.229Z,6.55
2022-11-26T20:07:46.719Z,7.05
2022-11-26T20:10:13.767Z,6.38
2022-11-26T20:12:53.352Z,6.43
2022-11-26T20:15:20.329Z,6.78
2022-11-26T20:17:47.872Z,5.68
2022-11-26T20:20:15.144Z,5.78
2022-11-26T20:22:42.429Z,6.30
2022-11-26T20:25:09.786Z,6.18
2022-11-26T20:27:37.683Z,6.25
2022-11-26T20:30:05.182Z,6.20
2022-11-26T20:32:32.492Z,6.13
2022-11-26T20:34:59.706Z,7.03
2022-11-26T20:37:27.197Z,7.55
2022-11-26T20:39:54.216Z,7.95
2022-11-26T20:42:21.757Z,8.02
2022-11-26T20:44:48.861Z,7.50
2022-11-26T20:47:16.240Z,6.78
2022-11-26T20:49:43.552Z,6.85
2022-11-26T20:52:11.091Z,7.00
2022-11-26T20:54:38.308Z,7.00
2022-11-26T20:57:07.933Z,7.95
2022-11-26T20:59:37.753Z,7.03
2022-11-26T21:02:05.513Z,6.88
2022-11-26T21:04:33.097Z,7.35
2022-11-26T21:07:02.697Z,7.57
2022-11-26T21:09:29.835Z,6.75
2022-11-26T21:11:57.749Z,7.57
2022-11-26T21:14:24.781Z,7.45
2022-11-26T21:16:52.103Z,8.05
2022-11-26T21:19:19.522Z,7.90
2022-11-26T21:21:46.799Z,7.22
2022-11-26T21:24:16.085Z,7.72
2022-11-26T21:26:43.715Z,6.72
2022-11-26T21:29:10.970Z,6.68
2022-11-26T21:31:40.943Z,8.40
2022-11-26T21:34:10.494Z,6.85
2022-11-26T21:36:37.985Z,7.40
2022-11-26T21:39:05.765Z,6.82
2022-11-26T21:41:33.547Z,6.22
2022-11-26T21:44:00.966Z,6.10
2022-11-26T21:46:28.556Z,7.10
2022-11-26T21:48:57.233Z,6.57
2022-11-26T21:51:27.554Z,7.78
2022-11-26T21:53:56.449Z,6.07
2022-11-26T21:56:27.171Z,6.40
2022-11-26T21:58:56.561Z,5.97
2022-11-26T22:01:29.063Z,6.47
2022-11-26T22:03:59.055Z,6.78
2022-11-26T22:06:27.050Z,6.95
2022-11-26T22:08:54.197Z,7.07
2022-11-26T22:11:23.328Z,7.57
2022-11-26T22:13:50.842Z,5.70
2022-11-26T22:16:21.030Z,5.80
2022-11-26T22:18:50.153Z,5.95
2022-11-26T22:21:33.530Z,5.70
2022-11-26T22:24:02.646Z,6.50
2022-11-26T22:26:31.737Z,6.13
2022-11-26T22:29:03.710Z,8.25
2022-11-26T22:31:36.508Z,7.72
2022-11-26T22:34:07.157Z,7.38
2022-11-26T22:36:34.825Z,7.25
2022-11-26T22:39:03.740Z,8.25
2022-11-26T22:41:32.608Z,8.77
2022-11-26T22:43:59.922Z,8.98
2022-11-26T22:46:27.584Z,9.35
2022-11-26T22:49:03.804Z,8.88
2022-11-26T22:51:33.314Z,9.07
2022-11-26T22:54:02.660Z,8.48
2022-11-26T22:56:31.252Z,8.85
2022-11-26T22:59:01.471Z,9.88
2022-11-26T23:01:31.827Z,8.98
2022-11-26T23:04:01.158Z,9.02
2022-11-26T23:06:33.348Z,9.32
2022-11-26T23:09:02.958Z,9.70
2022-11-26T23:11:36.518Z,8.50
2022-11-26T23:14:04.324Z,9.30
2022-11-26T23:16:31.793Z,8.38
2022-11-26T23:18:59.335Z,8.32
2022-11-26T23:21:31.527Z,8.82
2022-11-26T23:23:58.776Z,8.30
2022-11-26T23:26:28.435Z,9.88
2022-11-26T23:29:00.065Z,9.65
2022-11-26T23:31:33.192Z,10.70
2022-11-26T23:34:01.114Z,11.13
2022-11-26T23:36:29.430Z,11.90
2022-11-26T23:39:00.466Z,11.98
2022-11-26T23:41:28.062Z,12.48
2022-11-26T23:43:55.529Z,11.20
2022-11-26T23:46:25.464Z,10.70
2022-11-26T23:48:53.315Z,10.52
2022-11-26T23:51:27.024Z,10.48
2022-11-26T23:53:54.611Z,10.98
2022-11-26T23:56:24.997Z,11.02
2022-11-26T23:58:54.514Z,9.90
